Sidney, MI (48885)

8:10 PM EDT on September 04, 2015 (GMT -0400)
Langston, MI | | Change Station
CLOSE
Current Station
Personal Weather Station
Location: Michigan, MI
Elevation: 892 ft
Nearby Weather Stations

Elev 892 ft 43.31 °N, 85.24 °W | Updated 20 seconds ago

Overcast
Overcast
69.3 °F
Feels Like 69.3 °F
N
0.0
Wind Variable Wind from WSW
Gusts 0.0 mph

Today
High -- | Low -- °F
--% Chance of Precip.
Yesterday
High -- | Low -- °F
Precip. -- in
7:07 AM 8:10 PM
Waning Gibbous, 54% visible
Pressure 30.03 in
Visibility 10.0 miles
Clouds Scattered Clouds 3500 ft
Dew Point 67 °F
Humidity 92%
Rainfall 0.02 in
Snow Depth Not available.
UV 0 out of 12
Pollen 8.40 out of 12
Air Quality Not available.
Flu Activity Not available.
METAR KY70 042357Z AUTO 00000KT 10SM SCT035 22/21 A3003 RMK AO2 6//// T02230205
Pressure 30.03 in
Visibility 10.0 miles
Clouds Scattered Clouds 3500 ft
Dew Point 67 °F
Humidity 92%
Rainfall 0.02 in
Snow Depth Not available.
UV 0 out of 12
Pollen 8.40 out of 12
Air Quality Not available.
Flu Activity Not available.
METAR KY70 042357Z AUTO 00000KT 10SM SCT035 22/21 A3003 RMK AO2 6//// T02230205

10-Day Weather Forecast

×

Almanac

Astronomy

Sep. 04, 2015 Rise Set
Actual Time
Civil Twilight
Nautical Twilight
Astronomical Twilight
Moon
Length of Visible Light
Length of Day
Tomorrow will be .
, % of the Moon is Illuminated

Today's Extremes

State Highs State Lows

Community

WunderPhotos

Upload Photos

1,852,345 photos uploaded!

WunderBlogs® & News

Nearby

Air Quality

  Air Quality AQ Index Pollutant
Not available.

Snow Depth

Station Depth Elevation

Earthquake Activity

City Distance Mag. Time & Date
Minimum magnitude displayed is 2.5.

Coastal Water Temperatures

Place Temperature

Stations

Nearby Weather Stations

Station Location Temp. Windchill Dew Point Humidity Wind Precip. Elev Updated Type